sensor_id;sensor_type;location;lat;lon;timestamp;P1;durP1;ratioP1;P2;durP2;ratioP2
773;SDS011;370;48.810;9.150;2022-08-30T00:00:37;5.70;;;3.20;;
773;SDS011;370;48.810;9.150;2022-08-30T00:03:38;13.30;;;3.50;;
773;SDS011;370;48.810;9.150;2022-08-30T00:06:07;7.00;;;2.93;;
773;SDS011;370;48.810;9.150;2022-08-30T00:08:35;8.73;;;3.20;;
773;SDS011;370;48.810;9.150;2022-08-30T00:11:04;12.00;;;3.30;;
773;SDS011;370;48.810;9.150;2022-08-30T00:13:33;10.33;;;3.50;;
773;SDS011;370;48.810;9.150;2022-08-30T00:16:01;10.03;;;3.77;;
773;SDS011;370;48.810;9.150;2022-08-30T00:18:31;7.40;;;2.97;;
773;SDS011;370;48.810;9.150;2022-08-30T00:20:59;5.60;;;3.47;;
773;SDS011;370;48.810;9.150;2022-08-30T00:23:27;6.83;;;3.20;;
773;SDS011;370;48.810;9.150;2022-08-30T00:25:53;6.40;;;3.33;;
773;SDS011;370;48.810;9.150;2022-08-30T00:28:20;4.83;;;2.87;;
773;SDS011;370;48.810;9.150;2022-08-30T00:30:48;7.20;;;3.53;;
773;SDS011;370;48.810;9.150;2022-08-30T00:33:15;5.77;;;3.53;;
773;SDS011;370;48.810;9.150;2022-08-30T00:35:42;5.67;;;2.80;;
773;SDS011;370;48.810;9.150;2022-08-30T00:38:11;7.07;;;3.60;;
773;SDS011;370;48.810;9.150;2022-08-30T00:40:39;6.63;;;3.33;;
773;SDS011;370;48.810;9.150;2022-08-30T00:43:10;6.03;;;3.43;;
773;SDS011;370;48.810;9.150;2022-08-30T00:45:39;9.73;;;3.47;;
773;SDS011;370;48.810;9.150;2022-08-30T00:48:06;5.43;;;3.03;;
773;SDS011;370;48.810;9.150;2022-08-30T00:50:35;5.60;;;3.37;;
773;SDS011;370;48.810;9.150;2022-08-30T00:53:04;6.63;;;3.27;;
773;SDS011;370;48.810;9.150;2022-08-30T00:55:35;6.60;;;3.10;;
773;SDS011;370;48.810;9.150;2022-08-30T00:58:02;6.90;;;3.20;;
773;SDS011;370;48.810;9.150;2022-08-30T01:00:31;4.87;;;3.37;;
773;SDS011;370;48.810;9.150;2022-08-30T01:02:58;5.47;;;3.77;;
773;SDS011;370;48.810;9.150;2022-08-30T01:05:25;8.10;;;3.63;;
773;SDS011;370;48.810;9.150;2022-08-30T01:07:52;5.83;;;3.77;;
773;SDS011;370;48.810;9.150;2022-08-30T01:10:19;4.63;;;3.20;;
773;SDS011;370;48.810;9.150;2022-08-30T01:12:48;6.43;;;3.43;;
773;SDS011;370;48.810;9.150;2022-08-30T01:15:15;5.93;;;3.20;;
773;SDS011;370;48.810;9.150;2022-08-30T01:17:42;11.13;;;3.37;;
773;SDS011;370;48.810;9.150;2022-08-30T01:20:11;7.77;;;3.70;;
773;SDS011;370;48.810;9.150;2022-08-30T01:22:41;6.33;;;3.20;;
773;SDS011;370;48.810;9.150;2022-08-30T01:25:13;9.63;;;3.37;;
773;SDS011;370;48.810;9.150;2022-08-30T01:27:43;5.37;;;3.10;;
773;SDS011;370;48.810;9.150;2022-08-30T01:33:36;6.70;;;3.40;;
773;SDS011;370;48.810;9.150;2022-08-30T01:36:05;5.10;;;3.60;;
773;SDS011;370;48.810;9.150;2022-08-30T01:38:37;9.80;;;3.47;;
773;SDS011;370;48.810;9.150;2022-08-30T01:41:10;5.37;;;3.07;;
773;SDS011;370;48.810;9.150;2022-08-30T01:43:40;7.70;;;3.20;;
773;SDS011;370;48.810;9.150;2022-08-30T01:46:08;6.00;;;3.40;;
773;SDS011;370;48.810;9.150;2022-08-30T01:48:35;6.10;;;3.80;;
773;SDS011;370;48.810;9.150;2022-08-30T01:51:03;6.63;;;3.90;;
773;SDS011;370;48.810;9.150;2022-08-30T01:53:30;10.27;;;3.60;;
773;SDS011;370;48.810;9.150;2022-08-30T01:55:57;3.60;;;3.00;;
773;SDS011;370;48.810;9.150;2022-08-30T01:58:25;8.37;;;4.23;;
773;SDS011;370;48.810;9.150;2022-08-30T02:00:53;5.57;;;3.37;;
773;SDS011;370;48.810;9.150;2022-08-30T02:03:20;9.23;;;3.87;;
773;SDS011;370;48.810;9.150;2022-08-30T02:05:47;4.70;;;3.47;;
773;SDS011;370;48.810;9.150;2022-08-30T02:08:13;12.77;;;4.23;;
773;SDS011;370;48.810;9.150;2022-08-30T02:10:40;6.97;;;3.80;;
773;SDS011;370;48.810;9.150;2022-08-30T02:13:07;8.33;;;3.77;;
773;SDS011;370;48.810;9.150;2022-08-30T02:15:35;9.50;;;4.20;;
773;SDS011;370;48.810;9.150;2022-08-30T02:18:02;7.93;;;4.43;;
773;SDS011;370;48.810;9.150;2022-08-30T02:20:28;5.23;;;2.87;;
773;SDS011;370;48.810;9.150;2022-08-30T02:22:55;4.90;;;3.63;;
773;SDS011;370;48.810;9.150;2022-08-30T02:25:22;8.90;;;4.70;;
773;SDS011;370;48.810;9.150;2022-08-30T02:27:49;20.00;;;4.00;;
773;SDS011;370;48.810;9.150;2022-08-30T02:30:16;8.00;;;3.53;;
773;SDS011;370;48.810;9.150;2022-08-30T02:32:45;6.82;;;3.85;;
773;SDS011;370;48.810;9.150;2022-08-30T02:35:11;12.50;;;3.60;;
773;SDS011;370;48.810;9.150;2022-08-30T02:37:39;9.55;;;4.20;;
773;SDS011;370;48.810;9.150;2022-08-30T02:40:06;7.00;;;3.95;;
773;SDS011;370;48.810;9.150;2022-08-30T02:42:34;6.33;;;3.10;;
773;SDS011;370;48.810;9.150;2022-08-30T02:45:00;7.30;;;4.00;;
773;SDS011;370;48.810;9.150;2022-08-30T02:47:27;4.73;;;2.90;;
773;SDS011;370;48.810;9.150;2022-08-30T02:49:55;6.88;;;3.10;;
773;SDS011;370;48.810;9.150;2022-08-30T02:52:22;9.30;;;3.57;;
773;SDS011;370;48.810;9.150;2022-08-30T02:54:49;6.37;;;3.70;;
773;SDS011;370;48.810;9.150;2022-08-30T02:57:15;8.57;;;4.22;;
773;SDS011;370;48.810;9.150;2022-08-30T02:59:42;7.63;;;3.83;;
773;SDS011;370;48.810;9.150;2022-08-30T03:02:10;5.63;;;3.60;;
773;SDS011;370;48.810;9.150;2022-08-30T03:04:37;4.80;;;3.67;;
773;SDS011;370;48.810;9.150;2022-08-30T03:07:06;9.60;;;3.67;;
773;SDS011;370;48.810;9.150;2022-08-30T03:09:33;7.37;;;3.50;;
773;SDS011;370;48.810;9.150;2022-08-30T03:12:00;5.47;;;2.83;;
773;SDS011;370;48.810;9.150;2022-08-30T03:14:28;9.68;;;3.72;;
773;SDS011;370;48.810;9.150;2022-08-30T03:16:56;7.90;;;3.40;;
773;SDS011;370;48.810;9.150;2022-08-30T03:19:23;9.60;;;3.30;;
773;SDS011;370;48.810;9.150;2022-08-30T03:21:50;4.43;;;3.50;;
773;SDS011;370;48.810;9.150;2022-08-30T03:24:19;8.90;;;3.70;;
773;SDS011;370;48.810;9.150;2022-08-30T03:26:46;5.20;;;3.20;;
773;SDS011;370;48.810;9.150;2022-08-30T03:29:12;5.73;;;3.40;;
773;SDS011;370;48.810;9.150;2022-08-30T03:31:39;5.90;;;3.73;;
773;SDS011;370;48.810;9.150;2022-08-30T03:34:06;7.70;;;4.40;;
773;SDS011;370;48.810;9.150;2022-08-30T03:36:35;7.30;;;3.00;;
773;SDS011;370;48.810;9.150;2022-08-30T03:39:02;7.20;;;4.00;;
773;SDS011;370;48.810;9.150;2022-08-30T03:41:30;10.90;;;4.43;;
773;SDS011;370;48.810;9.150;2022-08-30T03:43:57;6.47;;;4.23;;
773;SDS011;370;48.810;9.150;2022-08-30T03:46:24;12.23;;;3.80;;
773;SDS011;370;48.810;9.150;2022-08-30T03:48:52;5.43;;;3.60;;
773;SDS011;370;48.810;9.150;2022-08-30T03:51:20;10.37;;;3.97;;
773;SDS011;370;48.810;9.150;2022-08-30T03:53:46;5.35;;;3.88;;
773;SDS011;370;48.810;9.150;2022-08-30T03:56:13;9.03;;;4.13;;
773;SDS011;370;48.810;9.150;2022-08-30T03:58:42;4.43;;;3.30;;
773;SDS011;370;48.810;9.150;2022-08-30T04:01:09;5.22;;;3.40;;
773;SDS011;370;48.810;9.150;2022-08-30T04:03:36;5.50;;;3.60;;
773;SDS011;370;48.810;9.150;2022-08-30T04:06:03;13.95;;;4.10;;
773;SDS011;370;48.810;9.150;2022-08-30T04:08:30;4.68;;;3.22;;
773;SDS011;370;48.810;9.150;2022-08-30T04:10:57;7.30;;;3.70;;
773;SDS011;370;48.810;9.150;2022-08-30T04:13:25;7.20;;;3.47;;
773;SDS011;370;48.810;9.150;2022-08-30T04:15:53;7.93;;;4.32;;
773;SDS011;370;48.810;9.150;2022-08-30T04:18:19;5.78;;;3.00;;
773;SDS011;370;48.810;9.150;2022-08-30T04:20:47;9.13;;;3.90;;
773;SDS011;370;48.810;9.150;2022-08-30T04:23:15;8.90;;;3.60;;
773;SDS011;370;48.810;9.150;2022-08-30T04:25:42;5.82;;;3.65;;
773;SDS011;370;48.810;9.150;2022-08-30T04:28:09;7.22;;;4.15;;
773;SDS011;370;48.810;9.150;2022-08-30T04:30:37;5.55;;;3.92;;
773;SDS011;370;48.810;9.150;2022-08-30T04:33:06;11.70;;;3.93;;
773;SDS011;370;48.810;9.150;2022-08-30T04:35:33;10.23;;;3.50;;
773;SDS011;370;48.810;9.150;2022-08-30T04:38:00;6.90;;;3.85;;
773;SDS011;370;48.810;9.150;2022-08-30T04:40:27;7.82;;;5.25;;
773;SDS011;370;48.810;9.150;2022-08-30T04:42:54;28.03;;;4.27;;
773;SDS011;370;48.810;9.150;2022-08-30T04:45:21;6.30;;;3.40;;
773;SDS011;370;48.810;9.150;2022-08-30T04:47:48;8.32;;;4.80;;
773;SDS011;370;48.810;9.150;2022-08-30T04:50:17;6.47;;;3.60;;
773;SDS011;370;48.810;9.150;2022-08-30T04:52:45;5.53;;;3.67;;
773;SDS011;370;48.810;9.150;2022-08-30T04:55:12;8.10;;;3.40;;
773;SDS011;370;48.810;9.150;2022-08-30T04:57:39;9.32;;;3.63;;
773;SDS011;370;48.810;9.150;2022-08-30T05:00:08;6.97;;;3.70;;
773;SDS011;370;48.810;9.150;2022-08-30T05:02:37;5.40;;;3.27;;
773;SDS011;370;48.810;9.150;2022-08-30T05:05:04;8.57;;;5.20;;
773;SDS011;370;48.810;9.150;2022-08-30T05:07:51;19.23;;;3.50;;
773;SDS011;370;48.810;9.150;2022-08-30T05:10:17;9.50;;;2.77;;
773;SDS011;370;48.810;9.150;2022-08-30T05:12:44;11.20;;;4.63;;
773;SDS011;370;48.810;9.150;2022-08-30T05:15:11;9.63;;;3.87;;
773;SDS011;370;48.810;9.150;2022-08-30T05:17:38;9.10;;;5.00;;
773;SDS011;370;48.810;9.150;2022-08-30T05:20:07;12.53;;;4.73;;
773;SDS011;370;48.810;9.150;2022-08-30T05:22:35;11.03;;;3.67;;
773;SDS011;370;48.810;9.150;2022-08-30T05:25:05;8.93;;;4.73;;
773;SDS011;370;48.810;9.150;2022-08-30T05:27:32;8.27;;;4.30;;
773;SDS011;370;48.810;9.150;2022-08-30T05:30:00;9.30;;;4.00;;
773;SDS011;370;48.810;9.150;2022-08-30T05:32:27;7.30;;;3.53;;
773;SDS011;370;48.810;9.150;2022-08-30T05:34:54;8.87;;;4.47;;
773;SDS011;370;48.810;9.150;2022-08-30T05:37:20;5.87;;;3.90;;
773;SDS011;370;48.810;9.150;2022-08-30T05:39:47;11.63;;;4.87;;
773;SDS011;370;48.810;9.150;2022-08-30T05:42:15;9.03;;;4.03;;
773;SDS011;370;48.810;9.150;2022-08-30T05:44:42;11.53;;;4.37;;
773;SDS011;370;48.810;9.150;2022-08-30T05:47:09;6.67;;;4.17;;
773;SDS011;370;48.810;9.150;2022-08-30T05:49:36;8.10;;;4.37;;
773;SDS011;370;48.810;9.150;2022-08-30T05:52:02;10.40;;;5.03;;
773;SDS011;370;48.810;9.150;2022-08-30T05:54:29;13.27;;;5.10;;
773;SDS011;370;48.810;9.150;2022-08-30T05:56:56;9.87;;;4.17;;
773;SDS011;370;48.810;9.150;2022-08-30T05:59:24;7.30;;;4.50;;
773;SDS011;370;48.810;9.150;2022-08-30T06:01:51;10.20;;;3.90;;
773;SDS011;370;48.810;9.150;2022-08-30T06:04:22;12.43;;;4.50;;
773;SDS011;370;48.810;9.150;2022-08-30T06:06:49;9.30;;;4.40;;
773;SDS011;370;48.810;9.150;2022-08-30T06:09:16;14.60;;;5.10;;
773;SDS011;370;48.810;9.150;2022-08-30T06:11:43;16.40;;;4.20;;
773;SDS011;370;48.810;9.150;2022-08-30T06:14:11;10.60;;;4.70;;
773;SDS011;370;48.810;9.150;2022-08-30T06:16:39;9.90;;;4.57;;
773;SDS011;370;48.810;9.150;2022-08-30T06:19:08;5.87;;;3.97;;
773;SDS011;370;48.810;9.150;2022-08-30T06:21:35;10.73;;;5.00;;
773;SDS011;370;48.810;9.150;2022-08-30T06:24:04;9.90;;;5.43;;
773;SDS011;370;48.810;9.150;2022-08-30T06:26:35;9.00;;;5.00;;
773;SDS011;370;48.810;9.150;2022-08-30T06:29:04;10.80;;;5.80;;
773;SDS011;370;48.810;9.150;2022-08-30T06:31:32;9.03;;;5.00;;
773;SDS011;370;48.810;9.150;2022-08-30T06:34:00;13.40;;;5.80;;
773;SDS011;370;48.810;9.150;2022-08-30T06:36:27;9.43;;;5.27;;
773;SDS011;370;48.810;9.150;2022-08-30T06:38:54;11.53;;;5.83;;
773;SDS011;370;48.810;9.150;2022-08-30T06:41:22;19.80;;;5.70;;
773;SDS011;370;48.810;9.150;2022-08-30T06:43:50;12.27;;;4.40;;
773;SDS011;370;48.810;9.150;2022-08-30T06:46:18;9.47;;;5.90;;
773;SDS011;370;48.810;9.150;2022-08-30T06:48:46;9.13;;;5.60;;
773;SDS011;370;48.810;9.150;2022-08-30T06:51:18;21.63;;;6.00;;
773;SDS011;370;48.810;9.150;2022-08-30T06:53:45;10.80;;;5.60;;
773;SDS011;370;48.810;9.150;2022-08-30T06:56:12;20.00;;;5.87;;
773;SDS011;370;48.810;9.150;2022-08-30T06:58:39;9.83;;;5.40;;
773;SDS011;370;48.810;9.150;2022-08-30T07:01:07;15.57;;;5.17;;
773;SDS011;370;48.810;9.150;2022-08-30T07:03:36;20.00;;;5.00;;
773;SDS011;370;48.810;9.150;2022-08-30T07:06:03;9.00;;;5.23;;
773;SDS011;370;48.810;9.150;2022-08-30T07:08:33;16.10;;;5.07;;
773;SDS011;370;48.810;9.150;2022-08-30T07:11:00;16.17;;;6.60;;
773;SDS011;370;48.810;9.150;2022-08-30T07:13:27;12.13;;;4.30;;
773;SDS011;370;48.810;9.150;2022-08-30T07:15:54;9.27;;;4.70;;
773;SDS011;370;48.810;9.150;2022-08-30T07:18:21;13.33;;;4.63;;
773;SDS011;370;48.810;9.150;2022-08-30T07:21:06;7.63;;;4.80;;
773;SDS011;370;48.810;9.150;2022-08-30T07:23:36;10.43;;;5.40;;
773;SDS011;370;48.810;9.150;2022-08-30T07:26:04;6.07;;;4.33;;
773;SDS011;370;48.810;9.150;2022-08-30T07:28:32;10.30;;;4.50;;
773;SDS011;370;48.810;9.150;2022-08-30T07:31:03;9.77;;;4.07;;
773;SDS011;370;48.810;9.150;2022-08-30T07:33:30;7.87;;;3.80;;
773;SDS011;370;48.810;9.150;2022-08-30T07:35:57;5.80;;;4.20;;
773;SDS011;370;48.810;9.150;2022-08-30T07:38:24;9.53;;;5.10;;
773;SDS011;370;48.810;9.150;2022-08-30T07:40:52;9.20;;;5.10;;
773;SDS011;370;48.810;9.150;2022-08-30T07:43:19;5.73;;;3.97;;
773;SDS011;370;48.810;9.150;2022-08-30T07:45:46;13.77;;;4.60;;
773;SDS011;370;48.810;9.150;2022-08-30T07:48:13;9.43;;;4.27;;
773;SDS011;370;48.810;9.150;2022-08-30T07:50:42;6.30;;;4.13;;
773;SDS011;370;48.810;9.150;2022-08-30T07:53:11;8.40;;;4.00;;
773;SDS011;370;48.810;9.150;2022-08-30T07:55:38;9.20;;;4.53;;
773;SDS011;370;48.810;9.150;2022-08-30T07:58:06;11.27;;;4.97;;
773;SDS011;370;48.810;9.150;2022-08-30T08:00:33;11.13;;;4.20;;
773;SDS011;370;48.810;9.150;2022-08-30T08:03:03;7.47;;;4.57;;
773;SDS011;370;48.810;9.150;2022-08-30T08:05:32;5.50;;;4.03;;
773;SDS011;370;48.810;9.150;2022-08-30T08:08:02;6.47;;;3.87;;
773;SDS011;370;48.810;9.150;2022-08-30T08:10:29;9.93;;;4.67;;
773;SDS011;370;48.810;9.150;2022-08-30T08:12:56;7.47;;;4.63;;
773;SDS011;370;48.810;9.150;2022-08-30T08:15:25;8.70;;;4.50;;
773;SDS011;370;48.810;9.150;2022-08-30T08:17:52;8.10;;;4.57;;
773;SDS011;370;48.810;9.150;2022-08-30T08:20:19;6.73;;;4.17;;
773;SDS011;370;48.810;9.150;2022-08-30T08:22:46;10.37;;;4.73;;
773;SDS011;370;48.810;9.150;2022-08-30T08:25:13;6.27;;;4.20;;
773;SDS011;370;48.810;9.150;2022-08-30T08:27:40;7.13;;;4.40;;
773;SDS011;370;48.810;9.150;2022-08-30T08:30:08;7.63;;;4.40;;
773;SDS011;370;48.810;9.150;2022-08-30T08:32:36;7.60;;;4.67;;
773;SDS011;370;48.810;9.150;2022-08-30T08:35:04;7.70;;;4.27;;
773;SDS011;370;48.810;9.150;2022-08-30T08:37:31;9.00;;;4.80;;
773;SDS011;370;48.810;9.150;2022-08-30T08:39:58;11.80;;;4.63;;
773;SDS011;370;48.810;9.150;2022-08-30T08:42:31;10.53;;;4.77;;
773;SDS011;370;48.810;9.150;2022-08-30T08:45:08;6.97;;;4.30;;
773;SDS011;370;48.810;9.150;2022-08-30T08:47:40;9.63;;;5.03;;
773;SDS011;370;48.810;9.150;2022-08-30T08:50:12;10.53;;;4.30;;
773;SDS011;370;48.810;9.150;2022-08-30T08:52:46;11.63;;;4.63;;
773;SDS011;370;48.810;9.150;2022-08-30T08:55:35;6.50;;;4.60;;
773;SDS011;370;48.810;9.150;2022-08-30T08:58:09;8.77;;;4.83;;
773;SDS011;370;48.810;9.150;2022-08-30T09:00:41;7.53;;;5.07;;
773;SDS011;370;48.810;9.150;2022-08-30T09:03:10;10.90;;;4.27;;
773;SDS011;370;48.810;9.150;2022-08-30T09:05:40;9.20;;;4.90;;
773;SDS011;370;48.810;9.150;2022-08-30T09:08:10;6.47;;;4.87;;
773;SDS011;370;48.810;9.150;2022-08-30T09:10:39;5.70;;;4.27;;
773;SDS011;370;48.810;9.150;2022-08-30T09:13:08;7.07;;;4.10;;
773;SDS011;370;48.810;9.150;2022-08-30T09:15:35;7.13;;;4.73;;
773;SDS011;370;48.810;9.150;2022-08-30T09:18:02;8.20;;;5.20;;
773;SDS011;370;48.810;9.150;2022-08-30T09:20:35;4.37;;;4.10;;
773;SDS011;370;48.810;9.150;2022-08-30T09:23:10;5.30;;;4.40;;
773;SDS011;370;48.810;9.150;2022-08-30T09:25:51;8.43;;;4.83;;
773;SDS011;370;48.810;9.150;2022-08-30T09:28:20;6.23;;;5.10;;
773;SDS011;370;48.810;9.150;2022-08-30T09:30:56;6.20;;;4.70;;
773;SDS011;370;48.810;9.150;2022-08-30T09:33:26;14.70;;;4.40;;
773;SDS011;370;48.810;9.150;2022-08-30T09:35:54;15.27;;;4.97;;
773;SDS011;370;48.810;9.150;2022-08-30T09:38:23;6.97;;;4.87;;
773;SDS011;370;48.810;9.150;2022-08-30T09:40:55;5.57;;;4.20;;
773;SDS011;370;48.810;9.150;2022-08-30T09:43:24;4.90;;;4.43;;
773;SDS011;370;48.810;9.150;2022-08-30T09:46:04;6.10;;;5.53;;
773;SDS011;370;48.810;9.150;2022-08-30T09:48:34;6.63;;;4.60;;
773;SDS011;370;48.810;9.150;2022-08-30T09:54:08;8.83;;;5.20;;
773;SDS011;370;48.810;9.150;2022-08-30T09:56:46;6.30;;;4.27;;
773;SDS011;370;48.810;9.150;2022-08-30T09:59:29;7.13;;;5.10;;
773;SDS011;370;48.810;9.150;2022-08-30T10:02:03;5.17;;;4.87;;
773;SDS011;370;48.810;9.150;2022-08-30T10:04:39;7.17;;;4.43;;
773;SDS011;370;48.810;9.150;2022-08-30T10:07:15;5.43;;;5.00;;
773;SDS011;370;48.810;9.150;2022-08-30T10:09:49;6.10;;;4.50;;
773;SDS011;370;48.810;9.150;2022-08-30T10:12:22;5.73;;;5.30;;
773;SDS011;370;48.810;9.150;2022-08-30T10:14:57;5.67;;;4.80;;
773;SDS011;370;48.810;9.150;2022-08-30T10:17:36;5.13;;;4.67;;
773;SDS011;370;48.810;9.150;2022-08-30T10:20:16;5.50;;;5.20;;
773;SDS011;370;48.810;9.150;2022-08-30T10:22:51;9.67;;;5.57;;
773;SDS011;370;48.810;9.150;2022-08-30T10:25:22;6.37;;;5.30;;
773;SDS011;370;48.810;9.150;2022-08-30T10:27:52;10.50;;;5.47;;
773;SDS011;370;48.810;9.150;2022-08-30T10:30:23;7.60;;;5.17;;
773;SDS011;370;48.810;9.150;2022-08-30T10:32:50;6.03;;;5.40;;
773;SDS011;370;48.810;9.150;2022-08-30T10:35:24;6.33;;;5.97;;
773;SDS011;370;48.810;9.150;2022-08-30T10:37:55;7.33;;;5.90;;
773;SDS011;370;48.810;9.150;2022-08-30T10:40:28;6.33;;;5.97;;
773;SDS011;370;48.810;9.150;2022-08-30T10:43:19;7.13;;;5.80;;
773;SDS011;370;48.810;9.150;2022-08-30T10:45:50;5.73;;;5.43;;
773;SDS011;370;48.810;9.150;2022-08-30T10:48:22;8.70;;;6.13;;
773;SDS011;370;48.810;9.150;2022-08-30T10:50:53;9.80;;;6.00;;
773;SDS011;370;48.810;9.150;2022-08-30T10:53:27;5.20;;;4.90;;
773;SDS011;370;48.810;9.150;2022-08-30T10:55:59;6.80;;;5.00;;
773;SDS011;370;48.810;9.150;2022-08-30T10:58:28;6.13;;;5.33;;
773;SDS011;370;48.810;9.150;2022-08-30T11:01:03;5.87;;;5.00;;
773;SDS011;370;48.810;9.150;2022-08-30T11:06:33;5.87;;;5.57;;
773;SDS011;370;48.810;9.150;2022-08-30T11:09:16;6.63;;;6.23;;
773;SDS011;370;48.810;9.150;2022-08-30T11:12:08;7.30;;;5.37;;
773;SDS011;370;48.810;9.150;2022-08-30T11:14:47;7.27;;;5.63;;
773;SDS011;370;48.810;9.150;2022-08-30T11:17:25;9.37;;;5.37;;
773;SDS011;370;48.810;9.150;2022-08-30T11:19:55;7.70;;;4.97;;
773;SDS011;370;48.810;9.150;2022-08-30T11:22:25;5.60;;;5.33;;
773;SDS011;370;48.810;9.150;2022-08-30T11:24:59;6.47;;;6.17;;
773;SDS011;370;48.810;9.150;2022-08-30T11:27:38;6.17;;;5.87;;
773;SDS011;370;48.810;9.150;2022-08-30T11:33:26;5.87;;;5.57;;
773;SDS011;370;48.810;9.150;2022-08-30T11:35:54;7.50;;;4.97;;
773;SDS011;370;48.810;9.150;2022-08-30T11:41:29;5.00;;;4.30;;
773;SDS011;370;48.810;9.150;2022-08-30T11:44:11;5.63;;;4.30;;
773;SDS011;370;48.810;9.150;2022-08-30T11:46:39;7.50;;;4.43;;
773;SDS011;370;48.810;9.150;2022-08-30T11:52:27;4.30;;;4.00;;
773;SDS011;370;48.810;9.150;2022-08-30T11:58:24;8.00;;;4.50;;
773;SDS011;370;48.810;9.150;2022-08-30T12:01:15;5.53;;;4.13;;
773;SDS011;370;48.810;9.150;2022-08-30T12:03:54;5.33;;;4.33;;
773;SDS011;370;48.810;9.150;2022-08-30T12:06:42;3.80;;;3.67;;
773;SDS011;370;48.810;9.150;2022-08-30T12:12:42;6.20;;;4.10;;
773;SDS011;370;48.810;9.150;2022-08-30T12:18:24;4.67;;;3.30;;
773;SDS011;370;48.810;9.150;2022-08-30T12:20:55;7.70;;;4.20;;
773;SDS011;370;48.810;9.150;2022-08-30T12:23:32;6.97;;;4.30;;
773;SDS011;370;48.810;9.150;2022-08-30T12:26:11;5.60;;;3.80;;
773;SDS011;370;48.810;9.150;2022-08-30T12:28:40;6.07;;;4.40;;
773;SDS011;370;48.810;9.150;2022-08-30T12:31:10;5.83;;;4.00;;
773;SDS011;370;48.810;9.150;2022-08-30T12:33:42;4.73;;;4.00;;
773;SDS011;370;48.810;9.150;2022-08-30T12:36:14;6.40;;;4.40;;
773;SDS011;370;48.810;9.150;2022-08-30T12:39:03;5.00;;;4.17;;
773;SDS011;370;48.810;9.150;2022-08-30T12:41:40;7.57;;;4.40;;
773;SDS011;370;48.810;9.150;2022-08-30T12:44:09;9.10;;;4.50;;
773;SDS011;370;48.810;9.150;2022-08-30T12:46:39;5.23;;;3.90;;
773;SDS011;370;48.810;9.150;2022-08-30T12:49:08;8.60;;;4.70;;
773;SDS011;370;48.810;9.150;2022-08-30T12:51:39;7.80;;;4.93;;
773;SDS011;370;48.810;9.150;2022-08-30T12:54:12;6.70;;;4.37;;
773;SDS011;370;48.810;9.150;2022-08-30T12:56:52;8.77;;;4.60;;
773;SDS011;370;48.810;9.150;2022-08-30T13:02:15;7.13;;;5.03;;
773;SDS011;370;48.810;9.150;2022-08-30T13:04:45;5.70;;;4.47;;
773;SDS011;370;48.810;9.150;2022-08-30T13:07:23;9.40;;;4.03;;
773;SDS011;370;48.810;9.150;2022-08-30T13:09:58;5.53;;;4.30;;
773;SDS011;370;48.810;9.150;2022-08-30T13:12:28;4.23;;;3.80;;
773;SDS011;370;48.810;9.150;2022-08-30T13:15:08;5.93;;;4.70;;
773;SDS011;370;48.810;9.150;2022-08-30T13:17:41;5.80;;;3.90;;
773;SDS011;370;48.810;9.150;2022-08-30T13:20:20;5.00;;;4.07;;
773;SDS011;370;48.810;9.150;2022-08-30T13:23:05;5.57;;;3.87;;
773;SDS011;370;48.810;9.150;2022-08-30T13:25:33;6.60;;;4.07;;
773;SDS011;370;48.810;9.150;2022-08-30T13:28:02;4.67;;;4.07;;
773;SDS011;370;48.810;9.150;2022-08-30T13:30:31;6.53;;;4.37;;
773;SDS011;370;48.810;9.150;2022-08-30T13:32:58;10.83;;;4.33;;
773;SDS011;370;48.810;9.150;2022-08-30T13:35:27;7.70;;;5.00;;
773;SDS011;370;48.810;9.150;2022-08-30T13:37:54;5.17;;;4.33;;
773;SDS011;370;48.810;9.150;2022-08-30T13:40:23;4.93;;;3.90;;
773;SDS011;370;48.810;9.150;2022-08-30T13:42:49;8.00;;;4.23;;
773;SDS011;370;48.810;9.150;2022-08-30T13:45:17;5.73;;;3.80;;
773;SDS011;370;48.810;9.150;2022-08-30T13:47:45;6.43;;;4.30;;
773;SDS011;370;48.810;9.150;2022-08-30T13:50:13;7.17;;;4.97;;
773;SDS011;370;48.810;9.150;2022-08-30T13:52:41;6.97;;;4.47;;
773;SDS011;370;48.810;9.150;2022-08-30T13:55:08;7.23;;;4.50;;
773;SDS011;370;48.810;9.150;2022-08-30T13:57:36;4.97;;;4.50;;
773;SDS011;370;48.810;9.150;2022-08-30T14:00:04;4.90;;;3.80;;
773;SDS011;370;48.810;9.150;2022-08-30T14:02:33;6.47;;;4.60;;
773;SDS011;370;48.810;9.150;2022-08-30T14:05:00;5.77;;;4.37;;
773;SDS011;370;48.810;9.150;2022-08-30T14:07:27;4.60;;;4.03;;
773;SDS011;370;48.810;9.150;2022-08-30T14:09:55;7.87;;;4.20;;
773;SDS011;370;48.810;9.150;2022-08-30T14:12:22;8.23;;;4.10;;
773;SDS011;370;48.810;9.150;2022-08-30T14:14:48;5.23;;;3.37;;
773;SDS011;370;48.810;9.150;2022-08-30T14:17:15;4.70;;;3.90;;
773;SDS011;370;48.810;9.150;2022-08-30T14:19:42;5.27;;;4.00;;
773;SDS011;370;48.810;9.150;2022-08-30T14:22:08;9.37;;;3.83;;
773;SDS011;370;48.810;9.150;2022-08-30T14:24:35;11.93;;;4.57;;
773;SDS011;370;48.810;9.150;2022-08-30T14:27:03;6.33;;;4.20;;
773;SDS011;370;48.810;9.150;2022-08-30T14:29:30;4.80;;;3.93;;
773;SDS011;370;48.810;9.150;2022-08-30T14:31:57;7.10;;;3.63;;
773;SDS011;370;48.810;9.150;2022-08-30T14:34:24;6.43;;;4.17;;
773;SDS011;370;48.810;9.150;2022-08-30T14:36:51;10.27;;;3.70;;
773;SDS011;370;48.810;9.150;2022-08-30T14:39:19;3.83;;;3.63;;
773;SDS011;370;48.810;9.150;2022-08-30T14:41:48;5.27;;;3.63;;
773;SDS011;370;48.810;9.150;2022-08-30T14:44:18;4.87;;;3.77;;
773;SDS011;370;48.810;9.150;2022-08-30T14:46:46;4.97;;;3.83;;
773;SDS011;370;48.810;9.150;2022-08-30T14:49:14;5.90;;;3.80;;
773;SDS011;370;48.810;9.150;2022-08-30T14:51:41;5.50;;;3.90;;
773;SDS011;370;48.810;9.150;2022-08-30T14:54:10;4.57;;;4.00;;
773;SDS011;370;48.810;9.150;2022-08-30T14:56:37;6.57;;;3.90;;
773;SDS011;370;48.810;9.150;2022-08-30T14:59:05;10.43;;;4.07;;
773;SDS011;370;48.810;9.150;2022-08-30T15:01:33;5.03;;;3.50;;
773;SDS011;370;48.810;9.150;2022-08-30T15:04:01;6.27;;;4.30;;
773;SDS011;370;48.810;9.150;2022-08-30T15:06:28;5.67;;;4.10;;
773;SDS011;370;48.810;9.150;2022-08-30T15:08:55;5.40;;;3.93;;
773;SDS011;370;48.810;9.150;2022-08-30T15:11:23;5.37;;;3.60;;
773;SDS011;370;48.810;9.150;2022-08-30T15:13:50;7.20;;;3.60;;
773;SDS011;370;48.810;9.150;2022-08-30T15:16:19;8.63;;;4.60;;
773;SDS011;370;48.810;9.150;2022-08-30T15:18:48;6.50;;;4.17;;
773;SDS011;370;48.810;9.150;2022-08-30T15:21:20;9.77;;;3.97;;
773;SDS011;370;48.810;9.150;2022-08-30T15:23:48;8.17;;;3.47;;
773;SDS011;370;48.810;9.150;2022-08-30T15:26:16;4.63;;;3.23;;
773;SDS011;370;48.810;9.150;2022-08-30T15:28:43;5.23;;;3.90;;
773;SDS011;370;48.810;9.150;2022-08-30T15:31:09;5.00;;;3.90;;
773;SDS011;370;48.810;9.150;2022-08-30T15:33:36;3.63;;;3.47;;
773;SDS011;370;48.810;9.150;2022-08-30T15:36:06;3.90;;;3.73;;
773;SDS011;370;48.810;9.150;2022-08-30T15:38:33;4.67;;;3.63;;
773;SDS011;370;48.810;9.150;2022-08-30T15:41:01;4.67;;;3.67;;
773;SDS011;370;48.810;9.150;2022-08-30T15:43:30;3.90;;;3.10;;
773;SDS011;370;48.810;9.150;2022-08-30T15:45:57;5.60;;;3.33;;
773;SDS011;370;48.810;9.150;2022-08-30T15:48:41;3.83;;;3.60;;
773;SDS011;370;48.810;9.150;2022-08-30T15:51:10;5.10;;;3.83;;
773;SDS011;370;48.810;9.150;2022-08-30T15:53:36;13.63;;;4.20;;
773;SDS011;370;48.810;9.150;2022-08-30T15:56:03;4.57;;;3.77;;
773;SDS011;370;48.810;9.150;2022-08-30T15:58:30;8.40;;;3.70;;
773;SDS011;370;48.810;9.150;2022-08-30T16:00:57;4.03;;;3.10;;
773;SDS011;370;48.810;9.150;2022-08-30T16:03:24;5.07;;;3.43;;
773;SDS011;370;48.810;9.150;2022-08-30T16:05:51;7.80;;;3.60;;
773;SDS011;370;48.810;9.150;2022-08-30T16:08:19;4.17;;;3.37;;
773;SDS011;370;48.810;9.150;2022-08-30T16:10:46;8.57;;;4.20;;
773;SDS011;370;48.810;9.150;2022-08-30T16:13:13;9.73;;;3.40;;
773;SDS011;370;48.810;9.150;2022-08-30T16:15:39;5.07;;;3.70;;
773;SDS011;370;48.810;9.150;2022-08-30T16:18:08;7.30;;;3.97;;
773;SDS011;370;48.810;9.150;2022-08-30T16:20:35;5.40;;;3.57;;
773;SDS011;370;48.810;9.150;2022-08-30T16:23:01;4.47;;;3.73;;
773;SDS011;370;48.810;9.150;2022-08-30T16:25:29;4.93;;;4.00;;
773;SDS011;370;48.810;9.150;2022-08-30T16:27:56;6.23;;;3.57;;